Torreon Francisco Sarabia International Airport

Current Flights

Info
Name: Torreon Francisco Sarabia International Airport
Identifier:  TRC/MMTC
Local Time:  22. May 18:44
City
Torreon
  Mexico

Flights per Day
20 flights
Distance: 860km (534mi)
Punctuality
76% (4 flights per day delayed)
Delay Average: 45 minutes
Current Weather
 39 C (Humidity: 7%)
  10kt (18km/h / 11mph) from 20°
  16km (10 mi.)
 SK
 METAR MMTC 222240Z 02010KT 10SM SKC 39/M03 A2973 RMK HZY

Current Delays

Departures
N/A
Arrivals
N/A

Destinations

Top Destinations
Airport Flights
per week
Seats
per week
  Mexico City (MEX) 91 9,198 13 1314
  Dallas (DFW) 28 700 4 100
  Guadalajara (GDL) 7 945 1 135
  Tijuana (TIJ) <1 784 0 112
  Cancun (CUN) <1 777 0 111
  San Antonio (SAT) <1 - 0 0
  San Marcos (HYI) <1 - 0 0

Airlines & Planes

Top Airlines
Airline Flights
per Day
Seats
per Day
  Aeroméxico Connect 9 841
  Envoy 2 65
  Interjet 2 259
  Volaris 1 254
  Aeroland 1 316
  Viva Aerobus 1 18
  American Eagle <1 35
  American Airlines <1 -
  National Airlines <1 -
Top Plane Types
Manufacturer Model Flights Seats
Embraer E190 9.0/day 815/day 815.8333333333334
Airbus A320 4.0/day 651/day 651.6333333333333
Embraer ERJ135 3.8/day 79/day 79.2
Airbus A320 Neo 1.4/day 49/day 49.6
Sukhoi Superjet 100-95 1.2/day 108/day 108.5
Embraer E170 0.4/day 25/day 25.6
Embraer ERJ145 0.3/day 3/day 3.3333333333333335
Embraer E175 0.2/day 17/day 17.733333333333334
Airbus A319 0.1/day 19/day 19.2
Airbus A321 0.1/day 19/day 19.2